Augusta, Missouri
Current Conditions -  °F | °C
As of 3:35 PM on Thursday 23 Oct 2014 (Local Time) from KFYG Reporting Station
Broken Clouds Broken Clouds  
Wind Chill: 18°   Ceiling: 10000
Heat Index: 18°   Visibility: 10mi
Dew Point:   Wind: 3mph
Humidity: 52%   Direction: 220°SW
Pressure: 30.09"   Gusts: NA
Location:  38.57°N, 90.88°W
Report Text: KFYG 232035Z AUTO 22003KT 10SM BKN100 18/08 A3009 RMK AO2
Loading
Personal Weather Stations






























Interactive Weather Map
Tropical Storm Tracking
New forecast layout! Learn more

10-Day Weather Forecast

Advertisements
Track Severe Weather on mobile